sensor_id;sensor_type;location;lat;lon;timestamp;P1;durP1;ratioP1;P2;durP2;ratioP2
21170;SDS011;10743;52.160;20.910;2023-03-01T00:01:37;209.87;;;74.10;;
21170;SDS011;10743;52.160;20.910;2023-03-01T00:04:05;190.63;;;69.33;;
21170;SDS011;10743;52.160;20.910;2023-03-01T00:06:32;205.10;;;74.07;;
21170;SDS011;10743;52.160;20.910;2023-03-01T00:08:59;203.07;;;71.37;;
21170;SDS011;10743;52.160;20.910;2023-03-01T00:11:30;210.23;;;72.67;;
21170;SDS011;10743;52.160;20.910;2023-03-01T00:13:59;191.60;;;71.37;;
21170;SDS011;10743;52.160;20.910;2023-03-01T00:16:29;184.63;;;68.50;;
21170;SDS011;10743;52.160;20.910;2023-03-01T00:19:09;194.47;;;69.90;;
21170;SDS011;10743;52.160;20.910;2023-03-01T00:21:43;194.30;;;68.90;;
21170;SDS011;10743;52.160;20.910;2023-03-01T00:24:10;194.70;;;68.50;;
21170;SDS011;10743;52.160;20.910;2023-03-01T00:26:37;179.77;;;67.87;;
21170;SDS011;10743;52.160;20.910;2023-03-01T00:29:05;191.67;;;66.87;;
21170;SDS011;10743;52.160;20.910;2023-03-01T00:31:32;188.63;;;69.17;;
21170;SDS011;10743;52.160;20.910;2023-03-01T00:34:04;192.50;;;69.17;;
21170;SDS011;10743;52.160;20.910;2023-03-01T00:36:33;178.67;;;66.60;;
21170;SDS011;10743;52.160;20.910;2023-03-01T00:39:03;199.03;;;69.10;;
21170;SDS011;10743;52.160;20.910;2023-03-01T00:41:33;200.93;;;69.33;;
21170;SDS011;10743;52.160;20.910;2023-03-01T00:44:01;191.37;;;67.73;;
21170;SDS011;10743;52.160;20.910;2023-03-01T00:46:28;197.33;;;68.07;;
21170;SDS011;10743;52.160;20.910;2023-03-01T00:48:57;192.37;;;67.53;;
21170;SDS011;10743;52.160;20.910;2023-03-01T00:51:25;181.40;;;66.47;;
21170;SDS011;10743;52.160;20.910;2023-03-01T00:53:56;189.07;;;64.87;;
21170;SDS011;10743;52.160;20.910;2023-03-01T00:56:26;169.30;;;62.27;;
21170;SDS011;10743;52.160;20.910;2023-03-01T00:58:55;172.00;;;63.47;;
21170;SDS011;10743;52.160;20.910;2023-03-01T01:01:23;176.93;;;64.37;;
21170;SDS011;10743;52.160;20.910;2023-03-01T01:03:56;176.70;;;62.90;;
21170;SDS011;10743;52.160;20.910;2023-03-01T01:06:28;176.17;;;64.90;;
21170;SDS011;10743;52.160;20.910;2023-03-01T01:09:02;176.63;;;63.30;;
21170;SDS011;10743;52.160;20.910;2023-03-01T01:11:32;183.40;;;65.73;;
21170;SDS011;10743;52.160;20.910;2023-03-01T01:14:01;187.07;;;66.27;;
21170;SDS011;10743;52.160;20.910;2023-03-01T01:16:29;185.43;;;64.90;;
21170;SDS011;10743;52.160;20.910;2023-03-01T01:18:57;185.53;;;66.77;;
21170;SDS011;10743;52.160;20.910;2023-03-01T01:21:25;183.73;;;66.43;;
21170;SDS011;10743;52.160;20.910;2023-03-01T01:23:53;188.97;;;65.90;;
21170;SDS011;10743;52.160;20.910;2023-03-01T01:26:23;184.47;;;66.70;;
21170;SDS011;10743;52.160;20.910;2023-03-01T01:28:56;188.40;;;64.90;;
21170;SDS011;10743;52.160;20.910;2023-03-01T01:31:23;190.23;;;66.47;;
21170;SDS011;10743;52.160;20.910;2023-03-01T01:33:52;182.23;;;65.07;;
21170;SDS011;10743;52.160;20.910;2023-03-01T01:36:20;177.93;;;65.67;;
21170;SDS011;10743;52.160;20.910;2023-03-01T01:38:48;185.57;;;64.67;;
21170;SDS011;10743;52.160;20.910;2023-03-01T01:41:15;174.83;;;63.27;;
21170;SDS011;10743;52.160;20.910;2023-03-01T01:43:46;187.43;;;64.57;;
21170;SDS011;10743;52.160;20.910;2023-03-01T01:46:36;177.30;;;63.67;;
21170;SDS011;10743;52.160;20.910;2023-03-01T01:49:17;177.03;;;63.77;;
21170;SDS011;10743;52.160;20.910;2023-03-01T01:51:55;183.17;;;64.23;;
21170;SDS011;10743;52.160;20.910;2023-03-01T01:54:33;176.53;;;64.67;;
21170;SDS011;10743;52.160;20.910;2023-03-01T01:57:32;175.50;;;63.97;;
21170;SDS011;10743;52.160;20.910;2023-03-01T02:00:16;186.73;;;65.73;;
21170;SDS011;10743;52.160;20.910;2023-03-01T02:02:47;175.67;;;63.00;;
21170;SDS011;10743;52.160;20.910;2023-03-01T02:05:24;178.87;;;63.13;;
21170;SDS011;10743;52.160;20.910;2023-03-01T02:08:04;180.90;;;64.53;;
21170;SDS011;10743;52.160;20.910;2023-03-01T02:10:32;180.87;;;62.60;;
21170;SDS011;10743;52.160;20.910;2023-03-01T02:13:02;178.00;;;62.87;;
21170;SDS011;10743;52.160;20.910;2023-03-01T02:15:34;173.73;;;62.00;;
21170;SDS011;10743;52.160;20.910;2023-03-01T02:18:03;181.07;;;63.07;;
21170;SDS011;10743;52.160;20.910;2023-03-01T02:23:24;180.80;;;64.37;;
21170;SDS011;10743;52.160;20.910;2023-03-01T02:30:58;179.00;;;63.37;;
21170;SDS011;10743;52.160;20.910;2023-03-01T02:33:45;185.13;;;62.47;;
21170;SDS011;10743;52.160;20.910;2023-03-01T02:36:25;177.53;;;62.60;;
21170;SDS011;10743;52.160;20.910;2023-03-01T02:38:59;172.23;;;62.80;;
21170;SDS011;10743;52.160;20.910;2023-03-01T02:41:33;177.20;;;62.13;;
21170;SDS011;10743;52.160;20.910;2023-03-01T02:44:04;173.40;;;61.97;;
21170;SDS011;10743;52.160;20.910;2023-03-01T02:46:32;175.87;;;62.27;;
21170;SDS011;10743;52.160;20.910;2023-03-01T02:48:59;171.47;;;61.37;;
21170;SDS011;10743;52.160;20.910;2023-03-01T02:51:31;170.87;;;61.43;;
21170;SDS011;10743;52.160;20.910;2023-03-01T02:54:30;174.37;;;62.23;;
21170;SDS011;10743;52.160;20.910;2023-03-01T02:57:05;166.87;;;61.53;;
21170;SDS011;10743;52.160;20.910;2023-03-01T02:59:35;171.73;;;62.37;;
21170;SDS011;10743;52.160;20.910;2023-03-01T03:02:24;182.40;;;64.30;;
21170;SDS011;10743;52.160;20.910;2023-03-01T03:05:13;189.30;;;65.70;;
21170;SDS011;10743;52.160;20.910;2023-03-01T03:07:45;173.83;;;61.63;;
21170;SDS011;10743;52.160;20.910;2023-03-01T03:10:16;183.23;;;64.40;;
21170;SDS011;10743;52.160;20.910;2023-03-01T03:12:50;172.20;;;63.60;;
21170;SDS011;10743;52.160;20.910;2023-03-01T03:15:39;188.70;;;64.87;;
21170;SDS011;10743;52.160;20.910;2023-03-01T03:18:09;174.67;;;63.37;;
21170;SDS011;10743;52.160;20.910;2023-03-01T03:20:39;169.43;;;62.03;;
21170;SDS011;10743;52.160;20.910;2023-03-01T03:23:08;168.30;;;61.00;;
21170;SDS011;10743;52.160;20.910;2023-03-01T03:25:35;170.37;;;62.10;;
21170;SDS011;10743;52.160;20.910;2023-03-01T03:28:04;168.13;;;62.27;;
21170;SDS011;10743;52.160;20.910;2023-03-01T03:30:37;169.40;;;61.50;;
21170;SDS011;10743;52.160;20.910;2023-03-01T03:33:06;168.07;;;61.47;;
21170;SDS011;10743;52.160;20.910;2023-03-01T03:35:40;181.07;;;62.40;;
21170;SDS011;10743;52.160;20.910;2023-03-01T03:38:13;177.67;;;62.67;;
21170;SDS011;10743;52.160;20.910;2023-03-01T03:43:19;168.07;;;61.10;;
21170;SDS011;10743;52.160;20.910;2023-03-01T03:45:49;178.63;;;63.23;;
21170;SDS011;10743;52.160;20.910;2023-03-01T03:48:17;172.90;;;63.20;;
21170;SDS011;10743;52.160;20.910;2023-03-01T03:51:03;173.23;;;61.57;;
21170;SDS011;10743;52.160;20.910;2023-03-01T03:53:32;186.17;;;65.20;;
21170;SDS011;10743;52.160;20.910;2023-03-01T03:56:00;175.27;;;64.80;;
21170;SDS011;10743;52.160;20.910;2023-03-01T03:58:27;200.30;;;72.03;;
21170;SDS011;10743;52.160;20.910;2023-03-01T04:00:55;188.23;;;71.87;;
21170;SDS011;10743;52.160;20.910;2023-03-01T04:03:24;208.53;;;70.60;;
21170;SDS011;10743;52.160;20.910;2023-03-01T04:05:53;182.37;;;64.00;;
21170;SDS011;10743;52.160;20.910;2023-03-01T04:08:21;169.10;;;61.47;;
21170;SDS011;10743;52.160;20.910;2023-03-01T04:10:50;166.07;;;61.77;;
21170;SDS011;10743;52.160;20.910;2023-03-01T04:13:22;174.67;;;63.43;;
21170;SDS011;10743;52.160;20.910;2023-03-01T04:15:52;173.73;;;63.27;;
21170;SDS011;10743;52.160;20.910;2023-03-01T04:18:21;177.90;;;63.50;;
21170;SDS011;10743;52.160;20.910;2023-03-01T04:20:50;189.43;;;66.83;;
21170;SDS011;10743;52.160;20.910;2023-03-01T04:23:19;165.57;;;61.13;;
21170;SDS011;10743;52.160;20.910;2023-03-01T04:25:57;161.93;;;59.87;;
21170;SDS011;10743;52.160;20.910;2023-03-01T04:28:32;196.23;;;73.30;;
21170;SDS011;10743;52.160;20.910;2023-03-01T04:31:10;180.00;;;68.93;;
21170;SDS011;10743;52.160;20.910;2023-03-01T04:33:45;111.27;;;49.83;;
21170;SDS011;10743;52.160;20.910;2023-03-01T04:36:18;88.37;;;42.47;;
21170;SDS011;10743;52.160;20.910;2023-03-01T04:38:50;95.67;;;40.93;;
21170;SDS011;10743;52.160;20.910;2023-03-01T04:41:19;93.30;;;41.90;;
21170;SDS011;10743;52.160;20.910;2023-03-01T04:43:48;78.43;;;38.60;;
21170;SDS011;10743;52.160;20.910;2023-03-01T04:46:16;84.73;;;38.13;;
21170;SDS011;10743;52.160;20.910;2023-03-01T04:48:46;91.93;;;41.43;;
21170;SDS011;10743;52.160;20.910;2023-03-01T04:51:13;90.13;;;40.30;;
21170;SDS011;10743;52.160;20.910;2023-03-01T04:53:42;83.00;;;38.83;;
21170;SDS011;10743;52.160;20.910;2023-03-01T04:56:10;93.83;;;41.30;;
21170;SDS011;10743;52.160;20.910;2023-03-01T04:58:40;93.63;;;42.07;;
21170;SDS011;10743;52.160;20.910;2023-03-01T05:01:11;120.00;;;50.27;;
21170;SDS011;10743;52.160;20.910;2023-03-01T05:03:43;132.67;;;51.27;;
21170;SDS011;10743;52.160;20.910;2023-03-01T05:06:15;122.50;;;50.13;;
21170;SDS011;10743;52.160;20.910;2023-03-01T05:08:44;124.10;;;49.70;;
21170;SDS011;10743;52.160;20.910;2023-03-01T05:11:11;120.93;;;50.00;;
21170;SDS011;10743;52.160;20.910;2023-03-01T05:13:39;125.20;;;50.87;;
21170;SDS011;10743;52.160;20.910;2023-03-01T05:16:07;152.50;;;55.63;;
21170;SDS011;10743;52.160;20.910;2023-03-01T05:18:38;154.67;;;57.33;;
21170;SDS011;10743;52.160;20.910;2023-03-01T05:21:10;145.80;;;55.60;;
21170;SDS011;10743;52.160;20.910;2023-03-01T05:23:42;142.37;;;54.43;;
21170;SDS011;10743;52.160;20.910;2023-03-01T05:26:10;138.50;;;54.13;;
21170;SDS011;10743;52.160;20.910;2023-03-01T05:28:53;158.37;;;58.57;;
21170;SDS011;10743;52.160;20.910;2023-03-01T05:31:25;149.73;;;56.40;;
21170;SDS011;10743;52.160;20.910;2023-03-01T05:33:53;136.77;;;56.00;;
21170;SDS011;10743;52.160;20.910;2023-03-01T05:36:20;124.33;;;52.03;;
21170;SDS011;10743;52.160;20.910;2023-03-01T05:38:47;129.87;;;51.63;;
21170;SDS011;10743;52.160;20.910;2023-03-01T05:41:14;123.90;;;50.37;;
21170;SDS011;10743;52.160;20.910;2023-03-01T05:43:43;126.23;;;49.87;;
21170;SDS011;10743;52.160;20.910;2023-03-01T05:46:11;119.87;;;49.07;;
21170;SDS011;10743;52.160;20.910;2023-03-01T05:48:41;130.93;;;51.17;;
21170;SDS011;10743;52.160;20.910;2023-03-01T05:51:08;120.10;;;48.87;;
21170;SDS011;10743;52.160;20.910;2023-03-01T05:53:35;114.17;;;46.93;;
21170;SDS011;10743;52.160;20.910;2023-03-01T05:56:03;110.23;;;47.17;;
21170;SDS011;10743;52.160;20.910;2023-03-01T05:58:31;107.17;;;46.77;;
21170;SDS011;10743;52.160;20.910;2023-03-01T06:00:58;108.23;;;45.97;;
21170;SDS011;10743;52.160;20.910;2023-03-01T06:03:25;99.00;;;43.93;;
21170;SDS011;10743;52.160;20.910;2023-03-01T06:05:56;108.37;;;45.70;;
21170;SDS011;10743;52.160;20.910;2023-03-01T06:08:25;106.30;;;45.80;;
21170;SDS011;10743;52.160;20.910;2023-03-01T06:10:53;113.10;;;47.00;;
21170;SDS011;10743;52.160;20.910;2023-03-01T06:13:21;106.13;;;44.50;;
21170;SDS011;10743;52.160;20.910;2023-03-01T06:15:49;111.33;;;46.97;;
21170;SDS011;10743;52.160;20.910;2023-03-01T06:18:17;113.33;;;47.67;;
21170;SDS011;10743;52.160;20.910;2023-03-01T06:20:44;109.37;;;45.90;;
21170;SDS011;10743;52.160;20.910;2023-03-01T06:23:11;100.23;;;44.47;;
21170;SDS011;10743;52.160;20.910;2023-03-01T06:25:38;101.60;;;44.83;;
21170;SDS011;10743;52.160;20.910;2023-03-01T06:28:05;94.17;;;43.03;;
21170;SDS011;10743;52.160;20.910;2023-03-01T06:30:32;102.07;;;44.83;;
21170;SDS011;10743;52.160;20.910;2023-03-01T06:32:59;95.47;;;44.37;;
21170;SDS011;10743;52.160;20.910;2023-03-01T06:35:29;97.50;;;44.23;;
21170;SDS011;10743;52.160;20.910;2023-03-01T06:38:01;115.00;;;48.73;;
21170;SDS011;10743;52.160;20.910;2023-03-01T06:40:30;120.17;;;50.53;;
21170;SDS011;10743;52.160;20.910;2023-03-01T06:42:58;139.40;;;55.63;;
21170;SDS011;10743;52.160;20.910;2023-03-01T06:45:25;145.30;;;62.57;;
21170;SDS011;10743;52.160;20.910;2023-03-01T06:47:57;151.37;;;65.77;;
21170;SDS011;10743;52.160;20.910;2023-03-01T06:50:31;148.53;;;61.77;;
21170;SDS011;10743;52.160;20.910;2023-03-01T06:53:00;128.93;;;51.50;;
21170;SDS011;10743;52.160;20.910;2023-03-01T06:55:28;128.60;;;50.73;;
21170;SDS011;10743;52.160;20.910;2023-03-01T06:57:55;122.50;;;50.83;;
21170;SDS011;10743;52.160;20.910;2023-03-01T07:00:23;125.83;;;51.43;;
21170;SDS011;10743;52.160;20.910;2023-03-01T07:02:52;124.93;;;51.20;;
21170;SDS011;10743;52.160;20.910;2023-03-01T07:05:20;127.73;;;51.53;;
21170;SDS011;10743;52.160;20.910;2023-03-01T07:07:47;116.00;;;49.10;;
21170;SDS011;10743;52.160;20.910;2023-03-01T07:10:15;114.57;;;47.77;;
21170;SDS011;10743;52.160;20.910;2023-03-01T07:12:42;119.93;;;49.93;;
21170;SDS011;10743;52.160;20.910;2023-03-01T07:15:09;122.07;;;50.63;;
21170;SDS011;10743;52.160;20.910;2023-03-01T07:17:37;110.93;;;48.50;;
21170;SDS011;10743;52.160;20.910;2023-03-01T07:20:04;102.03;;;45.60;;
21170;SDS011;10743;52.160;20.910;2023-03-01T07:22:31;109.93;;;46.73;;
21170;SDS011;10743;52.160;20.910;2023-03-01T07:24:59;104.13;;;45.87;;
21170;SDS011;10743;52.160;20.910;2023-03-01T07:27:26;106.17;;;46.67;;
21170;SDS011;10743;52.160;20.910;2023-03-01T07:29:53;113.57;;;49.30;;
21170;SDS011;10743;52.160;20.910;2023-03-01T07:32:20;99.77;;;43.37;;
21170;SDS011;10743;52.160;20.910;2023-03-01T07:34:47;96.63;;;43.53;;
21170;SDS011;10743;52.160;20.910;2023-03-01T07:37:14;98.17;;;43.63;;
21170;SDS011;10743;52.160;20.910;2023-03-01T07:39:41;101.73;;;45.27;;
21170;SDS011;10743;52.160;20.910;2023-03-01T07:42:08;99.23;;;43.00;;
21170;SDS011;10743;52.160;20.910;2023-03-01T07:44:36;97.37;;;44.10;;
21170;SDS011;10743;52.160;20.910;2023-03-01T07:47:03;104.90;;;47.10;;
21170;SDS011;10743;52.160;20.910;2023-03-01T07:49:31;101.60;;;47.93;;
21170;SDS011;10743;52.160;20.910;2023-03-01T07:51:58;83.57;;;39.87;;
21170;SDS011;10743;52.160;20.910;2023-03-01T07:54:25;91.37;;;40.93;;
21170;SDS011;10743;52.160;20.910;2023-03-01T07:56:52;82.67;;;40.00;;
21170;SDS011;10743;52.160;20.910;2023-03-01T07:59:21;82.67;;;38.53;;
21170;SDS011;10743;52.160;20.910;2023-03-01T08:01:49;91.10;;;42.33;;
21170;SDS011;10743;52.160;20.910;2023-03-01T08:04:17;86.57;;;39.47;;
21170;SDS011;10743;52.160;20.910;2023-03-01T08:06:44;88.70;;;40.97;;
21170;SDS011;10743;52.160;20.910;2023-03-01T08:09:11;98.43;;;43.60;;
21170;SDS011;10743;52.160;20.910;2023-03-01T08:11:38;82.97;;;37.00;;
21170;SDS011;10743;52.160;20.910;2023-03-01T08:14:06;76.77;;;39.33;;
21170;SDS011;10743;52.160;20.910;2023-03-01T08:16:33;77.17;;;37.77;;
21170;SDS011;10743;52.160;20.910;2023-03-01T08:19:05;81.87;;;36.50;;
21170;SDS011;10743;52.160;20.910;2023-03-01T08:21:34;68.93;;;36.47;;
21170;SDS011;10743;52.160;20.910;2023-03-01T08:24:02;60.27;;;31.97;;
21170;SDS011;10743;52.160;20.910;2023-03-01T08:26:32;64.13;;;33.10;;
21170;SDS011;10743;52.160;20.910;2023-03-01T08:29:00;71.00;;;34.87;;
21170;SDS011;10743;52.160;20.910;2023-03-01T08:31:32;84.47;;;40.10;;
21170;SDS011;10743;52.160;20.910;2023-03-01T08:34:03;58.57;;;30.67;;
21170;SDS011;10743;52.160;20.910;2023-03-01T08:36:36;61.83;;;30.03;;
21170;SDS011;10743;52.160;20.910;2023-03-01T08:39:07;76.00;;;33.80;;
21170;SDS011;10743;52.160;20.910;2023-03-01T08:41:37;61.77;;;28.50;;
21170;SDS011;10743;52.160;20.910;2023-03-01T08:44:05;57.33;;;28.27;;
21170;SDS011;10743;52.160;20.910;2023-03-01T08:46:33;66.63;;;30.97;;
21170;SDS011;10743;52.160;20.910;2023-03-01T08:49:07;54.87;;;29.33;;
21170;SDS011;10743;52.160;20.910;2023-03-01T08:51:41;47.93;;;27.67;;
21170;SDS011;10743;52.160;20.910;2023-03-01T08:54:10;51.67;;;26.40;;
21170;SDS011;10743;52.160;20.910;2023-03-01T08:56:45;61.70;;;28.20;;
21170;SDS011;10743;52.160;20.910;2023-03-01T08:59:14;55.77;;;24.33;;
21170;SDS011;10743;52.160;20.910;2023-03-01T09:01:42;61.17;;;26.77;;
21170;SDS011;10743;52.160;20.910;2023-03-01T09:04:10;58.73;;;31.73;;
21170;SDS011;10743;52.160;20.910;2023-03-01T09:06:38;48.33;;;21.77;;
21170;SDS011;10743;52.160;20.910;2023-03-01T09:09:06;51.00;;;19.47;;
21170;SDS011;10743;52.160;20.910;2023-03-01T09:11:41;52.17;;;22.60;;
21170;SDS011;10743;52.160;20.910;2023-03-01T09:14:10;53.13;;;26.63;;
21170;SDS011;10743;52.160;20.910;2023-03-01T09:16:39;47.80;;;18.10;;
21170;SDS011;10743;52.160;20.910;2023-03-01T09:19:06;52.03;;;17.73;;
21170;SDS011;10743;52.160;20.910;2023-03-01T09:21:33;39.93;;;15.33;;
21170;SDS011;10743;52.160;20.910;2023-03-01T09:24:07;44.80;;;16.07;;
21170;SDS011;10743;52.160;20.910;2023-03-01T09:26:42;40.33;;;15.23;;
21170;SDS011;10743;52.160;20.910;2023-03-01T09:29:14;42.90;;;15.00;;
21170;SDS011;10743;52.160;20.910;2023-03-01T09:31:42;47.83;;;14.50;;
21170;SDS011;10743;52.160;20.910;2023-03-01T09:34:09;43.37;;;16.40;;
21170;SDS011;10743;52.160;20.910;2023-03-01T09:36:37;37.07;;;14.40;;
21170;SDS011;10743;52.160;20.910;2023-03-01T09:39:04;58.80;;;23.57;;
21170;SDS011;10743;52.160;20.910;2023-03-01T09:46:58;38.60;;;12.73;;
21170;SDS011;10743;52.160;20.910;2023-03-01T09:49:45;39.47;;;14.53;;
21170;SDS011;10743;52.160;20.910;2023-03-01T09:52:40;32.87;;;13.23;;
21170;SDS011;10743;52.160;20.910;2023-03-01T09:55:14;36.87;;;12.80;;
21170;SDS011;10743;52.160;20.910;2023-03-01T09:57:47;43.80;;;17.80;;
21170;SDS011;10743;52.160;20.910;2023-03-01T10:00:46;47.43;;;18.33;;
21170;SDS011;10743;52.160;20.910;2023-03-01T10:03:24;43.33;;;15.83;;
21170;SDS011;10743;52.160;20.910;2023-03-01T10:09:16;39.13;;;15.07;;
21170;SDS011;10743;52.160;20.910;2023-03-01T10:11:53;36.17;;;14.50;;
21170;SDS011;10743;52.160;20.910;2023-03-01T10:20:25;61.60;;;29.00;;
21170;SDS011;10743;52.160;20.910;2023-03-01T10:23:33;47.27;;;28.13;;
21170;SDS011;10743;52.160;20.910;2023-03-01T10:29:06;200.47;;;62.33;;
21170;SDS011;10743;52.160;20.910;2023-03-01T10:31:45;212.63;;;65.03;;
21170;SDS011;10743;52.160;20.910;2023-03-01T10:34:19;199.47;;;63.80;;
21170;SDS011;10743;52.160;20.910;2023-03-01T10:36:50;226.20;;;89.90;;
21170;SDS011;10743;52.160;20.910;2023-03-01T10:39:20;207.50;;;77.43;;
21170;SDS011;10743;52.160;20.910;2023-03-01T10:47:30;205.03;;;63.53;;
21170;SDS011;10743;52.160;20.910;2023-03-01T10:52:37;209.10;;;63.30;;
21170;SDS011;10743;52.160;20.910;2023-03-01T10:58:08;212.43;;;63.67;;
21170;SDS011;10743;52.160;20.910;2023-03-01T11:03:23;204.90;;;63.40;;
21170;SDS011;10743;52.160;20.910;2023-03-01T11:08:38;221.60;;;65.30;;
21170;SDS011;10743;52.160;20.910;2023-03-01T11:14:02;234.43;;;65.83;;
21170;SDS011;10743;52.160;20.910;2023-03-01T11:22:36;223.07;;;66.87;;
21170;SDS011;10743;52.160;20.910;2023-03-01T11:25:27;224.73;;;65.77;;
21170;SDS011;10743;52.160;20.910;2023-03-01T11:28:03;223.40;;;63.53;;
21170;SDS011;10743;52.160;20.910;2023-03-01T11:30:34;210.30;;;60.27;;
21170;SDS011;10743;52.160;20.910;2023-03-01T11:36:51;213.60;;;64.67;;
21170;SDS011;10743;52.160;20.910;2023-03-01T11:39:28;204.83;;;67.50;;
21170;SDS011;10743;52.160;20.910;2023-03-01T11:44:44;219.37;;;63.97;;
21170;SDS011;10743;52.160;20.910;2023-03-01T11:50:08;206.87;;;62.97;;
21170;SDS011;10743;52.160;20.910;2023-03-01T12:01:23;231.27;;;64.37;;
21170;SDS011;10743;52.160;20.910;2023-03-01T12:04:32;220.50;;;63.13;;
21170;SDS011;10743;52.160;20.910;2023-03-01T12:07:36;215.03;;;62.10;;
21170;SDS011;10743;52.160;20.910;2023-03-01T12:51:06;205.07;;;62.33;;
21170;SDS011;10743;52.160;20.910;2023-03-01T12:53:42;200.17;;;60.30;;
21170;SDS011;10743;52.160;20.910;2023-03-01T12:56:15;328.37;;;82.50;;
21170;SDS011;10743;52.160;20.910;2023-03-01T12:59:01;196.63;;;61.97;;
21170;SDS011;10743;52.160;20.910;2023-03-01T13:01:36;196.97;;;59.67;;
21170;SDS011;10743;52.160;20.910;2023-03-01T13:04:31;191.60;;;58.70;;
21170;SDS011;10743;52.160;20.910;2023-03-01T13:13:11;190.70;;;61.40;;
21170;SDS011;10743;52.160;20.910;2023-03-01T13:15:51;196.43;;;77.50;;
21170;SDS011;10743;52.160;20.910;2023-03-01T13:20:46;194.53;;;63.00;;
21170;SDS011;10743;52.160;20.910;2023-03-01T13:28:53;191.60;;;60.47;;
21170;SDS011;10743;52.160;20.910;2023-03-01T13:33:54;191.63;;;61.97;;
21170;SDS011;10743;52.160;20.910;2023-03-01T13:42:28;220.80;;;76.57;;
21170;SDS011;10743;52.160;20.910;2023-03-01T13:45:14;200.60;;;76.47;;
21170;SDS011;10743;52.160;20.910;2023-03-01T13:50:59;213.87;;;67.80;;
21170;SDS011;10743;52.160;20.910;2023-03-01T13:53:36;206.37;;;65.27;;
21170;SDS011;10743;52.160;20.910;2023-03-01T13:58:53;200.00;;;66.37;;
21170;SDS011;10743;52.160;20.910;2023-03-01T14:01:33;206.17;;;68.93;;
21170;SDS011;10743;52.160;20.910;2023-03-01T14:04:03;205.80;;;70.10;;
21170;SDS011;10743;52.160;20.910;2023-03-01T14:06:46;213.87;;;67.57;;
21170;SDS011;10743;52.160;20.910;2023-03-01T14:09:22;206.37;;;63.43;;
21170;SDS011;10743;52.160;20.910;2023-03-01T14:12:03;203.23;;;63.73;;
21170;SDS011;10743;52.160;20.910;2023-03-01T14:22:57;210.90;;;67.50;;
21170;SDS011;10743;52.160;20.910;2023-03-01T14:25:29;204.50;;;65.53;;
21170;SDS011;10743;52.160;20.910;2023-03-01T14:28:18;217.13;;;68.50;;
21170;SDS011;10743;52.160;20.910;2023-03-01T14:30:56;222.03;;;87.13;;
21170;SDS011;10743;52.160;20.910;2023-03-01T14:33:27;211.43;;;69.17;;
21170;SDS011;10743;52.160;20.910;2023-03-01T14:38:35;214.17;;;69.40;;
21170;SDS011;10743;52.160;20.910;2023-03-01T14:43:46;216.47;;;66.80;;
21170;SDS011;10743;52.160;20.910;2023-03-01T14:46:26;211.30;;;69.83;;
21170;SDS011;10743;52.160;20.910;2023-03-01T14:49:25;219.87;;;72.13;;
21170;SDS011;10743;52.160;20.910;2023-03-01T14:52:02;202.37;;;63.80;;
21170;SDS011;10743;52.160;20.910;2023-03-01T14:54:39;200.77;;;64.53;;
21170;SDS011;10743;52.160;20.910;2023-03-01T14:57:20;191.57;;;65.27;;
21170;SDS011;10743;52.160;20.910;2023-03-01T14:59:52;210.80;;;71.97;;
21170;SDS011;10743;52.160;20.910;2023-03-01T15:02:31;200.47;;;67.33;;
21170;SDS011;10743;52.160;20.910;2023-03-01T15:05:01;206.63;;;69.77;;
21170;SDS011;10743;52.160;20.910;2023-03-01T15:07:35;205.20;;;67.13;;
21170;SDS011;10743;52.160;20.910;2023-03-01T15:10:06;204.43;;;65.43;;
21170;SDS011;10743;52.160;20.910;2023-03-01T15:12:47;198.90;;;63.53;;
21170;SDS011;10743;52.160;20.910;2023-03-01T15:18:04;201.73;;;62.73;;
21170;SDS011;10743;52.160;20.910;2023-03-01T15:20:40;249.00;;;108.60;;
21170;SDS011;10743;52.160;20.910;2023-03-01T15:23:13;208.83;;;65.83;;
21170;SDS011;10743;52.160;20.910;2023-03-01T15:25:52;207.40;;;63.03;;
21170;SDS011;10743;52.160;20.910;2023-03-01T15:28:31;210.07;;;75.70;;
21170;SDS011;10743;52.160;20.910;2023-03-01T15:34:09;204.23;;;64.23;;
21170;SDS011;10743;52.160;20.910;2023-03-01T15:36:52;190.67;;;62.63;;
21170;SDS011;10743;52.160;20.910;2023-03-01T15:41:57;190.53;;;61.63;;
21170;SDS011;10743;52.160;20.910;2023-03-01T15:44:28;195.33;;;62.37;;
21170;SDS011;10743;52.160;20.910;2023-03-01T15:47:21;197.30;;;62.53;;
21170;SDS011;10743;52.160;20.910;2023-03-01T15:49:55;207.70;;;65.80;;
21170;SDS011;10743;52.160;20.910;2023-03-01T15:52:26;207.20;;;66.60;;
21170;SDS011;10743;52.160;20.910;2023-03-01T15:54:57;202.73;;;65.40;;
21170;SDS011;10743;52.160;20.910;2023-03-01T15:57:30;193.83;;;63.40;;
21170;SDS011;10743;52.160;20.910;2023-03-01T15:59:57;199.87;;;63.80;;
21170;SDS011;10743;52.160;20.910;2023-03-01T16:02:25;195.40;;;62.60;;
21170;SDS011;10743;52.160;20.910;2023-03-01T16:04:52;205.60;;;67.30;;
21170;SDS011;10743;52.160;20.910;2023-03-01T16:07:20;204.47;;;68.27;;
21170;SDS011;10743;52.160;20.910;2023-03-01T16:09:47;226.93;;;83.93;;
21170;SDS011;10743;52.160;20.910;2023-03-01T16:12:14;222.17;;;70.37;;
21170;SDS011;10743;52.160;20.910;2023-03-01T16:14:42;222.87;;;73.80;;
21170;SDS011;10743;52.160;20.910;2023-03-01T16:17:10;203.77;;;67.33;;
21170;SDS011;10743;52.160;20.910;2023-03-01T16:19:37;212.23;;;70.10;;
21170;SDS011;10743;52.160;20.910;2023-03-01T16:22:05;223.73;;;75.53;;
21170;SDS011;10743;52.160;20.910;2023-03-01T16:24:32;225.53;;;73.93;;
21170;SDS011;10743;52.160;20.910;2023-03-01T16:26:59;255.20;;;79.33;;
21170;SDS011;10743;52.160;20.910;2023-03-01T16:29:26;328.47;;;153.77;;
21170;SDS011;10743;52.160;20.910;2023-03-01T16:31:55;263.80;;;86.13;;
21170;SDS011;10743;52.160;20.910;2023-03-01T16:34:22;250.37;;;81.63;;
21170;SDS011;10743;52.160;20.910;2023-03-01T16:36:49;227.10;;;76.60;;
21170;SDS011;10743;52.160;20.910;2023-03-01T16:39:16;218.90;;;72.50;;
21170;SDS011;10743;52.160;20.910;2023-03-01T16:41:43;216.43;;;70.00;;
21170;SDS011;10743;52.160;20.910;2023-03-01T16:44:11;209.30;;;67.40;;
21170;SDS011;10743;52.160;20.910;2023-03-01T16:46:38;221.57;;;71.40;;
21170;SDS011;10743;52.160;20.910;2023-03-01T16:49:08;224.43;;;72.13;;
21170;SDS011;10743;52.160;20.910;2023-03-01T16:51:35;214.40;;;71.57;;
21170;SDS011;10743;52.160;20.910;2023-03-01T16:54:03;216.73;;;71.67;;
21170;SDS011;10743;52.160;20.910;2023-03-01T16:56:31;207.50;;;69.03;;
21170;SDS011;10743;52.160;20.910;2023-03-01T16:59:00;225.23;;;82.13;;
21170;SDS011;10743;52.160;20.910;2023-03-01T17:01:31;225.13;;;75.63;;
21170;SDS011;10743;52.160;20.910;2023-03-01T17:04:09;228.93;;;76.90;;
21170;SDS011;10743;52.160;20.910;2023-03-01T17:06:38;239.77;;;80.33;;
21170;SDS011;10743;52.160;20.910;2023-03-01T17:09:05;228.67;;;74.53;;